Time;durP1;ratioP1;P1;durP2;ratioP2;P2;SDS_P1;SDS_P2;PMS_P1;PMS_P2;Temp;Humidity;BMP_temperature;BMP_pressure;BME280_temperature;BME280_humidity;BME280_pressure;Samples;Min_cycle;Max_cycle;Signal;HPM_P1;HPM_P2
2022/01/01 00:00:19;;;;;;;;;25.67;20.33;;;;;12.94;97.35;102113.06;5057953;28;45303;-79
2022/01/01 00:02:45;;;;;;;;;24.67;23.00;;;;;12.93;97.81;102117.50;5057533;28;47317;-79
2022/01/01 00:05:12;;;;;;;;;20.00;19.67;;;;;12.93;97.94;102136.00;5057451;28;45301;-78
2022/01/01 00:07:44;;;;;;;;;27.33;20.67;;;;;12.85;97.90;102125.50;5057863;28;45405;-79
2022/01/01 00:10:10;;;;;;;;;20.33;18.00;;;;;12.83;97.25;102127.28;5057837;28;45372;-80
2022/01/01 00:12:35;;;;;;;;;20.33;17.33;;;;;12.81;97.72;102129.06;5057375;28;46309;-80
2022/01/01 00:15:00;;;;;;;;;18.67;17.67;;;;;12.85;97.61;102140.47;5057510;28;45497;-80
2022/01/01 00:17:26;;;;;;;;;18.00;15.33;;;;;12.78;97.61;102130.84;5057840;28;45310;-79
2022/01/01 00:19:51;;;;;;;;;33.33;28.00;;;;;12.67;97.61;102129.19;5057872;28;45266;-79
2022/01/01 00:22:17;;;;;;;;;19.33;17.33;;;;;12.74;98.22;102140.59;5039183;28;46464;-79
2022/01/01 00:24:42;;;;;;;;;23.33;16.00;;;;;12.66;98.03;102131.84;5057499;28;45468;-78
2022/01/01 00:27:08;;;;;;;;;21.00;16.00;;;;;12.68;97.77;102141.53;5057512;28;45306;-81
2022/01/01 00:29:33;;;;;;;;;18.33;13.67;;;;;12.63;98.01;102145.97;5057656;28;45381;-81
2022/01/01 00:31:58;;;;;;;;;16.33;13.00;;;;;12.62;97.91;102143.34;5057016;28;46404;-80
2022/01/01 00:34:24;;;;;;;;;14.67;14.67;;;;;12.55;98.77;102145.16;5057475;28;45377;-79
2022/01/01 00:36:49;;;;;;;;;10.33;9.33;;;;;12.52;97.97;102146.06;5057466;28;45238;-79
2022/01/01 00:39:15;;;;;;;;;15.75;11.25;;;;;12.58;98.46;102157.50;5057470;28;45439;-80
2022/01/01 00:41:41;;;;;;;;;14.67;12.67;;;;;12.63;98.33;102151.25;5057080;28;46236;-79
2022/01/01 00:44:07;;;;;;;;;13.00;11.67;;;;;12.69;98.58;102145.03;5057254;28;45441;-80
2022/01/01 00:46:32;;;;;;;;;10.00;10.00;;;;;12.74;98.41;102156.44;5057262;28;45436;-79
2022/01/01 00:48:58;;;;;;;;;21.00;19.00;;;;;12.77;97.07;102152.91;5057392;28;45334;-80
2022/01/01 00:51:23;;;;;;;;;14.00;11.67;;;;;12.87;97.05;102160.72;5056985;28;45501;-80
2022/01/01 00:53:49;;;;;;;;;10.00;8.75;;;;;12.79;97.52;102151.97;5038969;28;45463;-79
2022/01/01 00:56:15;;;;;;;;;8.50;6.00;;;;;12.83;97.11;102153.72;5057213;28;45429;-79
2022/01/01 00:58:40;;;;;;;;;8.25;8.25;;;;;12.97;96.51;102164.16;5057558;28;45322;-79
2022/01/01 01:01:06;;;;;;;;;12.50;8.75;;;;;13.00;96.65;102160.63;5056849;28;45572;-80
2022/01/01 01:03:31;;;;;;;;;10.75;10.75;;;;;12.96;96.37;102145.69;5057003;28;45340;-79
2022/01/01 01:05:59;;;;;;;;;16.33;13.00;;;;;13.00;95.80;102137.69;5057160;28;45208;-82
2022/01/01 01:08:25;;;;;;;;;23.67;17.00;;;;;12.91;96.47;102137.81;5057039;28;45535;-79
2022/01/01 01:10:50;;;;;;;;;38.00;31.33;;;;;12.79;96.27;102128.19;5056487;28;45663;-81
2022/01/01 01:13:16;;;;;;;;;59.33;46.33;;;;;12.77;96.72;102134.41;5056580;28;45416;-79
2022/01/01 01:15:43;;;;;;;;;58.00;43.67;;;;;12.63;96.45;102121.31;5057172;28;45545;-79
2022/01/01 01:18:09;;;;;;;;;60.00;46.67;;;;;12.66;97.25;102130.09;5059814;28;45325;-81
2022/01/01 01:20:34;;;;;;;;;38.00;29.67;;;;;12.61;97.04;102133.69;5059976;28;46033;-81
2022/01/01 01:23:00;;;;;;;;;28.00;18.00;;;;;12.54;97.08;102133.72;5060187;28;45421;-80
2022/01/01 01:25:29;;;;;;;;;14.33;13.00;;;;;12.42;97.77;102117.97;5060471;28;45466;-79
2022/01/01 01:27:55;;;;;;;;;11.33;11.33;;;;;12.39;97.78;102114.47;5060284;28;45291;-80
2022/01/01 01:30:22;;;;;;;;;12.67;9.33;;;;;12.32;98.60;102109.25;5060050;28;45407;-80
2022/01/01 01:32:48;;;;;;;;;14.67;12.67;;;;;12.36;99.01;102118.91;5060099;28;45390;-79
2022/01/01 01:35:14;;;;;;;;;13.33;12.33;;;;;12.30;98.63;102113.69;5060313;28;45263;-79
2022/01/01 01:37:40;;;;;;;;;15.50;11.50;;;;;12.30;99.17;102116.31;5060398;28;45488;-80
2022/01/01 01:40:07;;;;;;;;;11.33;10.33;;;;;12.33;99.24;102128.63;5059912;28;45416;-80
2022/01/01 01:42:34;;;;;;;;;12.00;11.67;;;;;12.29;99.15;102126.91;5060044;28;45215;-80
2022/01/01 01:45:02;;;;;;;;;13.50;11.50;;;;;12.27;99.49;102126.00;5060086;28;45294;-80
2022/01/01 01:47:36;;;;;;;;;17.00;12.00;;;;;12.17;98.95;102114.66;5060037;28;45235;-80
2022/01/01 01:50:05;;;;;;;;;16.00;13.00;;;;;12.18;99.51;102122.56;5059626;28;46154;-79
2022/01/01 01:52:33;;;;;;;;;14.25;12.00;;;;;12.16;100.00;102123.47;5059910;28;45415;-83
2022/01/01 01:55:10;;;;;;;;;26.00;19.33;;;;;12.14;99.54;102119.94;5059891;28;45212;-83
2022/01/01 01:57:41;;;;;;;;;14.67;14.67;;;;;12.13;99.95;102134.91;5059901;28;45493;-82
2022/01/01 02:00:57;;;;;;;;;15.00;13.33;;;;;11.99;99.86;102126.22;5059616;28;46630;-79
2022/01/01 02:02:57;;;;;;;;;11.00;10.00;;;;;11.99;100.00;102132.34;5059193;28;45302;-80
2022/01/01 02:05:23;;;;;;;;;9.50;9.50;;;;;12.00;100.00;102134.13;5059846;28;45246;-78
2022/01/01 02:07:50;;;;;;;;;13.75;12.25;;;;;11.84;100.00;102109.53;5059923;28;45235;-82
2022/01/01 02:10:16;;;;;;;;;18.00;15.00;;;;;11.99;100.00;102129.72;5059678;28;46621;-79
2022/01/01 02:12:42;;;;;;;;;19.67;13.00;;;;;11.94;100.00;102147.34;5059374;28;45310;-78
2022/01/01 02:17:33;;;;;;;;;13.25;10.00;;;;;11.93;100.00;102145.59;5059691;28;45322;-79
2022/01/01 02:20:10;;;;;;;;;17.50;12.50;;;;;11.92;100.00;102135.91;5059291;28;45501;-79
2022/01/01 02:22:46;;;;;;;;;12.00;12.00;;;;;11.96;100.00;102137.66;5059475;28;45310;-79
2022/01/01 02:25:12;;;;;;;;;22.00;14.00;;;;;12.00;100.00;102157.88;5059486;28;45657;-81
2022/01/01 02:27:39;;;;;;;;;16.00;15.00;;;;;12.04;100.00;102149.94;5059301;28;45433;-78
2022/01/01 02:30:06;;;;;;;;;11.33;10.33;;;;;12.08;100.00;102151.66;5059356;28;45508;-79
2022/01/01 02:32:31;;;;;;;;;16.67;15.00;;;;;12.05;99.70;102138.50;5058763;28;45346;-80
2022/01/01 02:34:57;;;;;;;;;17.00;15.00;;;;;12.08;100.00;102143.75;5059337;28;45432;-80
2022/01/01 02:37:22;;;;;;;;;14.67;13.33;;;;;12.00;99.70;102125.34;5041177;28;45460;-81
2022/01/01 02:39:50;;;;;;;;;17.00;14.67;;;;;11.95;99.83;102132.38;5059005;28;45432;-80
2022/01/01 02:42:19;;;;;;;;;16.33;13.00;;;;;11.91;100.00;102115.69;5059065;28;45516;-84
2022/01/01 02:44:45;;;;;;;;;19.67;15.33;;;;;11.90;100.00;102124.47;5059302;28;45334;-81
2022/01/01 02:47:11;;;;;;;;;19.33;17.00;;;;;11.84;100.00;102120.09;5059174;28;45392;-82
2022/01/01 02:49:36;;;;;;;;;15.00;12.67;;;;;11.73;100.00;102099.94;5058894;28;45453;-79
2022/01/01 02:52:01;;;;;;;;;15.00;13.00;;;;;11.90;100.00;102118.31;5058964;28;45390;-80
2022/01/01 02:54:27;;;;;;;;;18.33;16.00;;;;;11.88;100.00;102115.69;5059102;28;45339;-79
2022/01/01 02:56:52;;;;;;;;;17.67;17.67;;;;;11.89;100.00;102116.56;5058989;28;45511;-80
2022/01/01 02:59:18;;;;;;;;;18.00;15.67;;;;;11.94;100.00;102126.25;5058771;28;45464;-79
2022/01/01 03:01:43;;;;;;;;;16.33;14.00;;;;;11.96;100.00;102127.09;5058631;28;45287;-82
2022/01/01 03:04:08;;;;;;;;;15.67;15.67;;;;;11.98;100.00;102129.72;5058809;28;45366;-82
2022/01/01 03:06:34;;;;;;;;;16.67;15.00;;;;;12.03;100.00;102130.59;5059088;28;45299;-78
2022/01/01 03:09:02;;;;;;;;;17.00;12.33;;;;;12.03;100.00;102125.31;5058610;28;45416;-85
2022/01/01 03:11:27;;;;;;;;;18.33;15.67;;;;;12.00;99.68;102120.91;5058352;28;45376;-79
2022/01/01 03:13:53;;;;;;;;;22.00;20.67;;;;;12.04;100.00;102127.06;5058665;28;45280;-80
2022/01/01 03:16:18;;;;;;;;;22.00;17.67;;;;;12.04;100.00;102127.06;5058834;28;45473;-78
2022/01/01 03:18:43;;;;;;;;;20.67;18.00;;;;;12.05;100.00;102120.88;5058592;28;45936;-79
2022/01/01 03:21:09;;;;;;;;;27.00;24.33;;;;;11.83;100.00;102089.31;5058589;28;45444;-78
2022/01/01 03:23:35;;;;;;;;;25.33;23.33;;;;;12.02;100.00;102120.91;5058418;28;45376;-80
2022/01/01 03:26:00;;;;;;;;;23.33;21.33;;;;;11.79;100.00;102082.31;5058585;28;45470;-78
2022/01/01 03:28:27;;;;;;;;;27.00;24.33;;;;;11.98;100.00;102113.88;5058263;28;46343;-82
2022/01/01 03:30:52;;;;;;;;;23.67;22.00;;;;;11.98;100.00;102104.22;5058184;28;45404;-78
2022/01/01 03:33:18;;;;;;;;;29.67;21.67;;;;;11.94;100.00;102081.38;5058491;28;45350;-80
2022/01/01 03:35:43;;;;;;;;;27.00;23.00;;;;;11.84;100.00;102077.00;5058469;28;45444;-80
2022/01/01 03:38:09;;;;;;;;;20.33;19.33;;;;;11.81;100.00;102082.31;5058130;28;46116;-83
2022/01/01 03:40:34;;;;;;;;;25.67;20.00;;;;;11.88;100.00;102105.13;5057410;28;45435;-79
2022/01/01 03:42:59;;;;;;;;;24.67;20.67;;;;;11.72;100.00;102083.25;5058317;28;45746;-80
2022/01/01 03:45:25;;;;;;;;;16.33;15.33;;;;;11.85;100.00;102107.81;5058367;28;45401;-81
2022/01/01 03:47:50;;;;;;;;;23.00;21.33;;;;;11.94;100.00;102123.59;5057912;28;46305;-82
2022/01/01 03:50:16;;;;;;;;;26.67;22.00;;;;;11.91;100.00;102110.41;5058147;28;45336;-79
2022/01/01 03:52:43;;;;;;;;;21.33;19.00;;;;;11.98;100.00;102117.41;5058364;28;45368;-82
2022/01/01 03:55:10;;;;;;;;;28.67;20.00;;;;;11.97;100.00;102107.75;5058270;28;45368;-82
2022/01/01 03:57:35;;;;;;;;;23.00;21.67;;;;;11.96;100.00;102103.34;5057686;28;48286;-83
2022/01/01 04:00:01;;;;;;;;;24.67;24.00;;;;;11.98;100.00;102108.59;5057699;28;45412;-82
2022/01/01 04:02:26;;;;;;;;;23.33;20.33;;;;;11.82;100.00;102074.38;5058043;28;45290;-81
2022/01/01 04:04:51;;;;;;;;;27.00;23.00;;;;;12.04;100.00;102113.88;5058055;28;45372;-81
2022/01/01 04:07:17;;;;;;;;;22.33;19.33;;;;;12.02;100.00;102113.88;5057792;28;46183;-81
2022/01/01 04:09:42;;;;;;;;;30.67;26.67;;;;;12.01;100.00;102103.34;5057867;28;45313;-82
2022/01/01 04:12:07;;;;;;;;;27.67;22.00;;;;;11.97;100.00;102107.75;5057529;28;45243;-82
2022/01/01 04:14:33;;;;;;;;;34.33;26.00;;;;;11.99;100.00;102113.88;5057980;28;45291;-82
2022/01/01 04:16:58;;;;;;;;;26.67;25.00;;;;;12.02;100.00;102099.78;5057577;28;46392;-82
2022/01/01 04:19:33;;;;;;;;;33.33;25.00;;;;;12.01;100.00;102095.41;5039607;28;46088;-82
2022/01/01 04:21:58;;;;;;;;;25.33;23.67;;;;;11.98;100.00;102090.13;5057587;28;45420;-81
2022/01/01 04:24:24;;;;;;;;;32.00;29.00;;;;;11.99;100.00;102089.25;5057646;28;45322;-83
2022/01/01 04:26:49;;;;;;;;;26.00;25.33;;;;;12.00;100.00;102093.66;5057568;28;46604;-82
2022/01/01 04:29:14;;;;;;;;;25.33;24.67;;;;;12.03;100.00;102098.91;5057305;28;45295;-82
2022/01/01 04:31:41;;;;;;;;;31.67;28.33;;;;;12.02;100.00;102103.31;5057292;28;45259;-83
2022/01/01 04:34:07;;;;;;;;;33.33;29.00;;;;;11.92;100.00;102087.50;5057663;28;45230;-82
2022/01/01 04:36:32;;;;;;;;;27.67;25.00;;;;;12.05;100.00;102105.03;5057303;28;46023;-83
2022/01/01 04:38:58;;;;;;;;;46.67;33.33;;;;;11.98;100.00;102101.59;5057384;28;45404;-81
2022/01/01 04:41:23;;;;;;;;;27.67;27.33;;;;;11.98;100.00;102109.50;5057209;28;45372;-82
2022/01/01 04:43:48;;;;;;;;;31.33;27.00;;;;;11.98;100.00;102106.88;5057485;28;45433;-82
2022/01/01 04:46:15;;;;;;;;;39.33;30.33;;;;;12.01;100.00;102111.25;5056623;28;45473;-80
2022/01/01 04:48:40;;;;;;;;;36.00;27.33;;;;;12.00;100.00;102120.06;5057148;28;45356;-81
2022/01/01 04:51:07;;;;;;;;;27.33;23.33;;;;;12.01;100.00;102121.81;5058617;28;45404;-81
2022/01/01 04:53:39;;;;;;;;;28.00;24.67;;;;;11.79;100.00;102076.16;5061124;28;45336;-79
2022/01/01 04:56:07;;;;;;;;;35.33;26.67;;;;;11.99;100.00;102110.38;5060671;28;46532;-81
2022/01/01 04:58:32;;;;;;;;;28.33;24.00;;;;;11.97;100.00;102105.09;5060628;28;45385;-81
2022/01/01 05:00:58;;;;;;;;;24.33;21.33;;;;;12.05;100.00;102114.72;5060670;28;45338;-80
2022/01/01 05:03:23;;;;;;;;;24.67;23.00;;;;;12.08;100.00;102112.06;5060975;28;45652;-81
2022/01/01 05:05:49;;;;;;;;;16.67;12.67;;;;;12.12;100.00;102119.94;5060628;28;46071;-81
2022/01/01 05:08:14;;;;;;;;;23.67;22.00;;;;;12.08;100.00;102106.78;5060519;28;45136;-82
2022/01/01 05:10:39;;;;;;;;;22.00;19.67;;;;;12.04;100.00;102100.66;5060681;28;45678;-80
2022/01/01 05:13:05;;;;;;;;;19.00;18.67;;;;;11.90;100.00;102074.31;5060633;28;45408;-81
2022/01/01 05:15:31;;;;;;;;;22.00;19.67;;;;;12.10;100.00;102108.53;5060282;28;46323;-81
2022/01/01 05:17:57;;;;;;;;;32.33;22.67;;;;;11.94;100.00;102084.00;5060349;28;45297;-81
2022/01/01 05:20:22;;;;;;;;;18.33;16.33;;;;;12.15;100.00;102119.06;5060377;28;45231;-82
2022/01/01 05:22:47;;;;;;;;;28.00;22.67;;;;;12.17;100.00;102127.88;5060711;28;45401;-81
2022/01/01 05:25:13;;;;;;;;;23.00;21.00;;;;;12.19;100.00;102119.03;5060054;28;45608;-80
2022/01/01 05:27:38;;;;;;;;;23.00;18.67;;;;;12.19;100.00;102119.03;5060216;28;45418;-82
2022/01/01 05:30:05;;;;;;;;;25.67;21.67;;;;;12.21;100.00;102128.69;5060388;28;45317;-83
2022/01/01 05:32:31;;;;;;;;;26.00;24.33;;;;;12.22;100.00;102133.09;5060328;28;45302;-80
2022/01/01 05:34:57;;;;;;;;;19.00;19.00;;;;;12.10;100.00;102116.47;5060326;28;45390;-82
2022/01/01 05:37:22;;;;;;;;;33.33;23.00;;;;;12.15;100.00;102119.94;5060122;28;45328;-81
2022/01/01 05:39:47;;;;;;;;;23.67;20.33;;;;;12.22;100.00;102127.81;5060557;28;45890;-80
2022/01/01 05:42:13;;;;;;;;;27.33;22.33;;;;;12.20;100.00;102122.56;5060105;28;45227;-83
2022/01/01 05:44:38;;;;;;;;;32.00;26.33;;;;;12.24;100.00;102131.31;5059961;28;46189;-81
2022/01/01 05:47:04;;;;;;;;;28.67;25.00;;;;;12.25;100.00;102120.75;5060220;28;45305;-81
2022/01/01 05:49:29;;;;;;;;;28.00;21.33;;;;;12.25;100.00;102111.97;5060126;28;45448;-82
2022/01/01 05:51:55;;;;;;;;;31.00;23.33;;;;;12.25;100.00;102109.31;5060177;28;45213;-82
2022/01/01 05:54:20;;;;;;;;;22.67;22.00;;;;;12.15;100.00;102093.53;5059910;28;46329;-83
2022/01/01 05:56:46;;;;;;;;;30.33;22.67;;;;;12.18;100.00;102090.88;5059698;28;45419;-83
2022/01/01 05:59:11;;;;;;;;;29.33;20.67;;;;;12.26;100.00;102111.06;5040236;28;45573;-80
2022/01/01 06:01:36;;;;;;;;;23.67;21.00;;;;;12.23;100.00;102106.69;5039527;28;45413;-80
2022/01/01 06:04:02;;;;;;;;;19.67;17.33;;;;;12.28;100.00;102107.50;5039008;28;45344;-77
2022/01/01 06:06:27;;;;;;;;;24.33;19.67;;;;;12.22;100.00;102097.00;5036846;28;45250;-79
2022/01/01 06:08:52;;;;;;;;;21.67;21.67;;;;;12.24;100.00;102092.56;5024943;28;45704;-79
2022/01/01 06:11:18;;;;;;;;;26.67;22.33;;;;;12.31;100.00;102098.69;5024753;28;45519;-79
2022/01/01 06:13:43;;;;;;;;;29.67;21.67;;;;;12.30;100.00;102086.38;5028538;28;45720;-80
2022/01/01 06:16:09;;;;;;;;;27.00;22.00;;;;;12.32;100.00;102092.53;5034590;28;45782;-82
2022/01/01 06:18:34;;;;;;;;;25.00;23.00;;;;;12.26;100.00;102076.75;5036850;28;45423;-83
2022/01/01 06:21:02;;;;;;;;;25.00;25.00;;;;;12.26;100.00;102074.09;5033912;28;45371;-82
2022/01/01 06:23:27;;;;;;;;;25.67;19.33;;;;;12.29;100.00;102074.94;5037001;28;46745;-84
2022/01/01 06:25:53;;;;;;;;;22.00;20.33;;;;;12.30;100.00;102081.09;5033133;28;45654;-85
2022/01/01 06:28:18;;;;;;;;;26.67;22.67;;;;;12.18;100.00;102059.19;5039280;28;45324;-84
2022/01/01 06:30:43;;;;;;;;;25.00;22.00;;;;;12.18;100.00;102061.84;5031530;28;45395;-83
2022/01/01 06:33:12;;;;;;;;;21.67;21.33;;;;;12.28;100.00;102072.31;5038503;28;46506;-83
2022/01/01 06:35:42;;;;;;;;;29.33;23.33;;;;;12.26;100.00;102068.81;5039311;28;45549;-83
2022/01/01 06:38:08;;;;;;;;;25.33;23.00;;;;;12.27;100.00;102068.81;5039040;28;45378;-84
2022/01/01 06:40:34;;;;;;;;;22.67;19.33;;;;;12.15;100.00;102047.78;5038916;28;45434;-84
2022/01/01 06:42:59;;;;;;;;;31.00;25.00;;;;;12.28;100.00;102072.31;5038748;28;46488;-82
2022/01/01 06:45:25;;;;;;;;;24.33;24.00;;;;;12.25;100.00;102078.50;5039032;28;45573;-81
2022/01/01 06:47:50;;;;;;;;;36.00;30.00;;;;;12.14;100.00;102073.31;5039081;28;45292;-81
2022/01/01 06:50:15;;;;;;;;;31.67;23.00;;;;;12.18;100.00;102079.44;5038746;28;45476;-82
2022/01/01 06:52:45;;;;;;;;;28.67;23.33;;;;;12.23;100.00;102088.19;5038667;28;45862;-82
2022/01/01 06:55:12;;;;;;;;;23.33;22.00;;;;;12.22;100.00;102082.94;5038896;28;45370;-84
2022/01/01 06:57:39;;;;;;;;;33.33;29.67;;;;;12.16;100.00;102087.34;5038740;28;45335;-83
2022/01/01 07:00:05;;;;;;;;;29.67;26.33;;;;;12.18;100.00;102087.34;5038539;28;45437;-82
2022/01/01 07:02:30;;;;;;;;;30.33;26.67;;;;;12.10;100.00;102076.00;5038416;28;45350;-82
2022/01/01 07:04:56;;;;;;;;;28.33;23.67;;;;;12.05;100.00;102078.63;5038633;28;45269;-82
2022/01/01 07:07:21;;;;;;;;;30.33;23.33;;;;;12.13;100.00;102089.16;5038880;28;45751;-83
2022/01/01 07:09:47;;;;;;;;;30.33;26.33;;;;;12.07;100.00;102082.16;5038536;28;45362;-84
2022/01/01 07:12:12;;;;;;;;;23.00;19.67;;;;;12.15;100.00;102088.25;5038229;28;46093;-83
2022/01/01 07:14:38;;;;;;;;;22.00;22.00;;;;;11.95;100.00;102047.91;5037242;28;45750;-84
2022/01/01 07:17:03;;;;;;;;;26.00;21.33;;;;;12.14;100.00;102083.88;5038656;28;45380;-82
2022/01/01 07:19:28;;;;;;;;;25.67;22.33;;;;;11.80;100.00;102039.19;5038745;28;45461;-82
2022/01/01 07:21:59;;;;;;;;;27.33;23.00;;;;;12.07;100.00;102087.44;5038201;28;46464;-82
2022/01/01 07:24:25;;;;;;;;;29.33;23.33;;;;;12.04;100.00;102079.56;5037783;28;45233;-82
2022/01/01 07:26:50;;;;;;;;;26.33;21.33;;;;;11.99;100.00;102086.59;5038702;28;45244;-84
2022/01/01 07:29:16;;;;;;;;;30.00;23.00;;;;;11.98;100.00;102083.09;5038445;28;45232;-85
2022/01/01 07:31:41;;;;;;;;;29.67;25.33;;;;;11.99;100.00;102084.84;5037964;28;46042;-82
2022/01/01 07:34:07;;;;;;;;;29.33;22.33;;;;;12.04;100.00;102097.13;5037702;28;45416;-81
2022/01/01 07:36:32;;;;;;;;;27.00;23.67;;;;;11.97;100.00;102085.75;5038135;28;45297;-82
2022/01/01 07:38:57;;;;;;;;;28.67;23.67;;;;;11.98;100.00;102092.78;5038540;28;45223;-84
2022/01/01 07:41:22;;;;;;;;;29.67;26.67;;;;;12.10;100.00;102105.03;5037976;28;46227;-83
2022/01/01 07:43:48;;;;;;;;;27.33;22.67;;;;;11.97;100.00;102083.97;5038051;28;45346;-83
2022/01/01 07:46:13;;;;;;;;;26.33;24.33;;;;;12.06;100.00;102103.28;5037612;28;45435;-81
2022/01/01 07:48:39;;;;;;;;;27.67;22.67;;;;;11.99;100.00;102081.34;5038267;28;45320;-83
2022/01/01 07:51:04;;;;;;;;;27.67;24.67;;;;;11.87;100.00;102053.22;5037986;28;45587;-85
2022/01/01 07:53:29;;;;;;;;;27.00;23.00;;;;;12.06;100.00;102090.97;5037991;28;45330;-83
2022/01/01 07:55:55;;;;;;;;;22.33;19.67;;;;;12.11;100.00;102099.75;5038129;28;45310;-83
2022/01/01 07:58:20;;;;;;;;;29.67;23.00;;;;;12.14;100.00;102098.81;5037644;28;45528;-83
2022/01/01 08:00:45;;;;;;;;;24.67;18.67;;;;;12.16;100.00;102102.34;5037325;28;46242;-81
2022/01/01 08:03:11;;;;;;;;;26.33;20.67;;;;;12.15;100.00;102096.16;5037848;28;45310;-83
2022/01/01 08:05:37;;;;;;;;;25.50;21.50;;;;;12.07;100.00;102084.81;5037820;28;45356;-84
2022/01/01 08:08:03;;;;;;;;;23.67;21.00;;;;;12.09;100.00;102088.28;5038372;28;45345;-81
2022/01/01 08:10:29;;;;;;;;;25.33;21.00;;;;;12.14;100.00;102097.06;5037276;28;45348;-87
2022/01/01 08:12:55;;;;;;;;;31.33;23.33;;;;;12.15;100.00;102096.16;5037346;28;45283;-85
2022/01/01 08:15:21;;;;;;;;;25.67;21.33;;;;;12.13;100.00;102102.38;5037709;28;45244;-85
2022/01/01 08:17:46;;;;;;;;;24.33;20.33;;;;;12.09;100.00;102096.22;5037732;28;45397;-81
2022/01/01 08:20:12;;;;;;;;;29.00;21.00;;;;;11.88;100.00;102055.00;5037549;28;45288;-84
2022/01/01 08:22:37;;;;;;;;;23.67;18.33;;;;;12.13;100.00;102100.59;5037165;28;45580;-82
2022/01/01 08:25:03;;;;;;;;;24.67;20.33;;;;;12.12;100.00;102097.97;5037404;28;45240;-81
2022/01/01 08:27:28;;;;;;;;;21.33;20.00;;;;;12.08;100.00;102089.16;5037570;28;45349;-81
2022/01/01 08:29:54;;;;;;;;;17.33;17.33;;;;;12.07;100.00;102098.00;5037191;28;46004;-83
2022/01/01 08:32:19;;;;;;;;;23.67;21.00;;;;;12.10;100.00;102089.19;5036523;28;45441;-80
2022/01/01 08:34:45;;;;;;;;;27.67;21.00;;;;;12.15;100.00;102098.81;5037395;28;45382;-81
2022/01/01 08:37:10;;;;;;;;;26.00;20.67;;;;;12.10;100.00;102086.56;5037345;28;45591;-81
2022/01/01 08:39:37;;;;;;;;;25.33;22.67;;;;;12.21;100.00;102103.16;5036819;28;45517;-80
2022/01/01 08:42:02;;;;;;;;;33.33;23.00;;;;;12.11;100.00;102096.19;5036098;28;45400;-83
2022/01/01 08:44:28;;;;;;;;;23.33;20.67;;;;;12.09;100.00;102072.44;5037258;28;45377;-80
2022/01/01 08:46:53;;;;;;;;;24.67;21.00;;;;;12.10;100.00;102068.94;5037414;28;45520;-84
2022/01/01 08:49:19;;;;;;;;;30.00;20.33;;;;;12.15;100.00;102067.13;5036997;28;45350;-83
2022/01/01 08:51:44;;;;;;;;;26.67;21.67;;;;;12.21;100.00;102060.91;5036840;28;45415;-82
2022/01/01 08:54:12;;;;;;;;;30.00;25.67;;;;;12.22;100.00;102060.03;5037038;28;45280;-81
2022/01/01 08:56:38;;;;;;;;;21.33;18.00;;;;;12.21;100.00;102049.47;5037419;28;45507;-84
2022/01/01 08:59:04;;;;;;;;;24.00;20.67;;;;;12.20;100.00;102048.63;5036714;28;45434;-84
2022/01/01 09:01:29;;;;;;;;;26.67;21.00;;;;;12.17;100.00;102038.09;5036685;28;45423;-81
2022/01/01 09:03:55;;;;;;;;;27.67;24.00;;;;;12.28;100.00;102061.75;5036733;28;45743;-82
2022/01/01 09:06:21;;;;;;;;;27.67;21.67;;;;;12.29;100.00;102048.53;5037133;28;45299;-83
2022/01/01 09:08:46;;;;;;;;;26.00;20.50;;;;;12.26;100.00;102032.72;5036789;28;47036;-83
2022/01/01 09:11:13;;;;;;;;;23.00;20.00;;;;;12.40;100.00;102034.34;5036480;28;45457;-82
2022/01/01 09:13:42;;;;;;;;;22.33;18.33;;;;;12.42;100.00;102041.38;5036697;28;45429;-80
2022/01/01 09:16:12;;;;;;;;;22.00;19.67;;;;;12.40;100.00;102026.41;5037044;28;45244;-82
2022/01/01 09:18:39;;;;;;;;;23.00;18.33;;;;;12.46;100.00;102024.59;5037578;28;46295;-81
2022/01/01 09:21:05;;;;;;;;;27.67;21.67;;;;;12.52;100.00;102034.25;5037130;28;45278;-80
2022/01/01 09:23:31;;;;;;;;;28.00;21.67;;;;;12.60;100.00;102042.06;5036785;28;45312;-82
2022/01/01 09:25:56;;;;;;;;;24.33;22.67;;;;;12.56;100.00;102035.06;5037084;28;45361;-80
2022/01/01 09:28:22;;;;;;;;;21.67;18.33;;;;;12.74;100.00;102041.94;5036807;28;46002;-81
2022/01/01 09:30:47;;;;;;;;;27.00;21.00;;;;;12.79;100.00;102033.03;5036345;28;45310;-83
2022/01/01 09:33:12;;;;;;;;;26.00;18.67;;;;;12.88;100.00;102042.63;5036832;28;45248;-80
2022/01/01 09:35:38;;;;;;;;;21.00;20.33;;;;;12.90;100.00;102043.50;5036730;28;45239;-80
2022/01/01 09:38:03;;;;;;;;;21.00;19.00;;;;;13.02;100.00;102040.72;5038016;28;46035;-82
2022/01/01 09:40:30;;;;;;;;;21.67;19.33;;;;;13.17;99.01;102054.63;5040255;28;45334;-82
2022/01/01 09:42:58;;;;;;;;;22.00;20.00;;;;;13.28;98.56;102051.88;5040175;28;45359;-82
2022/01/01 09:45:23;;;;;;;;;22.67;19.33;;;;;13.47;97.57;102053.41;5039996;28;45488;-82
2022/01/01 09:47:50;;;;;;;;;23.00;20.67;;;;;13.59;96.85;102057.63;5040234;28;45291;-81
2022/01/01 09:50:15;;;;;;;;;24.00;18.33;;;;;13.68;95.46;102048.69;5039862;28;45232;-80
2022/01/01 09:52:41;;;;;;;;;17.67;13.33;;;;;13.65;97.36;102038.16;5040136;28;45251;-79
2022/01/01 09:55:06;;;;;;;;;23.00;21.67;;;;;13.68;95.71;102039.00;5040122;28;45311;-81
2022/01/01 09:57:32;;;;;;;;;25.33;22.00;;;;;13.65;95.76;102032.84;5039537;28;46634;-81
2022/01/01 09:59:57;;;;;;;;;25.33;23.00;;;;;13.60;94.63;102032.94;5039890;28;45469;-80
2022/01/01 10:02:23;;;;;;;;;23.00;21.00;;;;;13.52;95.69;102001.28;5039816;28;45470;-82
2022/01/01 10:04:51;;;;;;;;;23.00;20.33;;;;;13.71;96.34;102036.28;5040520;28;45480;-83
2022/01/01 10:07:25;;;;;;;;;20.33;18.67;;;;;13.68;94.79;102032.81;5039815;28;46637;-79
2022/01/01 10:09:51;;;;;;;;;20.00;18.00;;;;;13.54;96.38;102010.06;5039308;28;45333;-82
2022/01/01 10:12:17;;;;;;;;;33.33;25.67;;;;;13.57;94.88;102020.59;5039878;28;45316;-82
2022/01/01 10:14:45;;;;;;;;;22.67;20.67;;;;;13.55;94.49;102033.00;5039740;28;45547;-80
2022/01/01 10:17:19;;;;;;;;;23.00;22.33;;;;;13.52;95.01;102041.00;5039187;28;45847;-80
2022/01/01 10:19:48;;;;;;;;;22.67;20.00;;;;;13.44;95.26;102026.13;5039478;28;45430;-80
2022/01/01 10:22:17;;;;;;;;;22.00;22.00;;;;;13.46;95.29;102025.19;5039682;28;45467;-79
2022/01/01 10:27:48;;;;;;;;;31.67;25.33;;;;;13.55;95.00;102021.56;5038790;28;45897;-81
2022/01/01 10:30:22;;;;;;;;;23.67;21.33;;;;;13.50;93.87;102010.16;5039091;28;45348;-84
2022/01/01 10:33:09;;;;;;;;;22.00;20.00;;;;;13.54;94.21;102015.38;5039518;28;45454;-83
2022/01/01 10:35:47;;;;;;;;;22.33;18.33;;;;;13.57;94.23;102003.88;5039018;28;45385;-81
2022/01/01 10:38:25;;;;;;;;;25.00;21.00;;;;;13.65;93.31;102017.88;5038546;28;45686;-84
2022/01/01 10:40:57;;;;;;;;;24.67;19.00;;;;;13.60;93.97;102008.25;5038764;28;45332;-83
2022/01/01 10:43:34;;;;;;;;;23.33;22.00;;;;;13.52;93.82;102011.88;5038867;28;45390;-82
2022/01/01 10:46:02;;;;;;;;;25.33;22.33;;;;;13.41;94.67;102009.38;5038737;28;45320;-81
2022/01/01 10:48:40;;;;;;;;;27.33;21.33;;;;;13.40;95.02;102014.69;5038544;28;46490;-80
2022/01/01 10:51:07;;;;;;;;;45.67;36.67;;;;;13.43;95.05;102030.50;5038810;28;45476;-82
2022/01/01 10:53:34;;;;;;;;;33.67;30.67;;;;;13.49;95.12;102018.97;5038870;28;45382;-80
2022/01/01 10:56:20;;;;;;;;;23.00;22.00;;;;;13.60;94.48;102025.00;5038828;28;45422;-80
2022/01/01 10:58:58;;;;;;;;;23.67;20.67;;;;;13.61;93.98;102021.47;5038022;28;46644;-82
2022/01/01 11:01:24;;;;;;;;;22.67;19.00;;;;;13.63;95.10;102013.50;5038302;28;45235;-82
2022/01/01 11:03:49;;;;;;;;;23.33;20.00;;;;;13.71;94.67;102020.41;5038886;28;45160;-83
2022/01/01 11:06:18;;;;;;;;;17.67;16.33;;;;;13.76;94.33;102023.84;5039294;28;45266;-82